Portada
METAR-TAF:

METAR-TAF

Aeroports :

Sion, Suïssa

latitud: 46-13N, longitud: 007-20E, altitud: 482 m

Observació

L'informe es va fer fa 6 minuts, a les 10:50 UTC
Vent 8 kt del Oest/Sud-Oest, variant entre Sud-Oest i Oest
Temperatura 25°C
Humitat 44%
Pressió 1014 hPa
Visibilitat 10 km o més
Escasses núvols a una alçada de 9000 ft
Núvols disperses a una alçada de 30000 ft

METAR: LSGS 171050Z 25008KT 220V280 9999 FEW090 SCT300 25/12 Q1014

Hora: 12:56 (10:56 UTC)

Pronòstic

L'informe es va fer fa 2 hores i 31 minuts, a les 08:25 UTC
Pronòstic vàlid del 17 a les 09 UTC al 17 a les 18 UTC
Vent 3 kt amb direcció variable
Visibilitat 10 km o més
Escasses núvols a una alçada de 8000 ft
Evolucionant progressivament
l' 17 a les 12 UTC al 17 a les 14 UTC
Vent 12 kt del Oest/Sud-Oest

TAF: LSGS 170825Z 1709/1718 VRB03KT 9999 FEW080 BECMG 1712/1714 25012KT

Observacions i pronòstics meteorològics de més de 4000 aeroports (METAR i TAF).

Les estacions disponibles són els punts grocs i vermells al mapa.

Posi el ratolí al punt desitjat per veure el nom de l'estació.

Feu clic per veure les observacions i els pronòstics meteorològics.

Per canviar el mapa: feu clic els botons verds amb una creu de color negre per apropar; al botó verd amb un guió per allunyar la imatge; o en les fletxes verdes per a mapes adjacents.


METAR-TAF: